createdAt,value
2023-05-23T00:02:19.373Z,97145.00
2023-05-23T00:04:48.210Z,97143.00
2023-05-23T00:07:17.919Z,97153.00
2023-05-23T00:09:46.189Z,97146.00
2023-05-23T00:12:14.372Z,97157.00
2023-05-23T00:14:42.626Z,97157.00
2023-05-23T00:17:12.068Z,97162.00
2023-05-23T00:19:40.516Z,97163.00
2023-05-23T00:22:09.061Z,97162.00
2023-05-23T00:24:38.611Z,97170.00
2023-05-23T00:27:07.486Z,97164.00
2023-05-23T00:29:35.692Z,97171.00
2023-05-23T00:32:03.918Z,97172.00
2023-05-23T00:34:32.122Z,97161.00
2023-05-23T00:37:02.243Z,97170.00
2023-05-23T00:39:30.552Z,97174.00
2023-05-23T00:42:00.164Z,97165.00
2023-05-23T00:44:28.294Z,97169.00
2023-05-23T00:46:58.777Z,97174.00
2023-05-23T00:49:28.848Z,97179.00
2023-05-23T00:51:58.000Z,97171.00
2023-05-23T00:54:31.391Z,97173.00
2023-05-23T00:57:01.460Z,97174.00
2023-05-23T00:59:31.301Z,97171.00
2023-05-23T01:02:01.361Z,97169.00
2023-05-23T01:04:29.914Z,97184.00
2023-05-23T01:06:58.796Z,97179.00
2023-05-23T01:09:30.361Z,97173.00
2023-05-23T01:12:17.868Z,97180.00
2023-05-23T01:14:57.936Z,97183.00
2023-05-23T01:17:36.123Z,97188.00
2023-05-23T01:20:10.650Z,97185.00
2023-05-23T01:23:05.691Z,97183.00
2023-05-23T01:25:53.846Z,97181.00
2023-05-23T01:28:29.301Z,97176.00
2023-05-23T01:31:03.454Z,97179.00
2023-05-23T01:33:35.087Z,97178.00
2023-05-23T01:36:04.443Z,97169.00
2023-05-23T01:38:32.900Z,97178.00
2023-05-23T01:41:01.778Z,97170.00
2023-05-23T01:43:31.648Z,97174.00
2023-05-23T01:46:02.455Z,97158.00
2023-05-23T01:48:32.125Z,97161.00
2023-05-23T01:51:00.829Z,97163.00
2023-05-23T01:53:30.869Z,97168.00
2023-05-23T01:56:03.353Z,97173.00
2023-05-23T01:58:33.065Z,97173.00
2023-05-23T02:01:01.981Z,97176.00
2023-05-23T02:03:31.731Z,97169.00
2023-05-23T02:06:00.299Z,97171.00
2023-05-23T02:08:28.961Z,97172.00
2023-05-23T02:10:57.545Z,97169.00
2023-05-23T02:13:25.880Z,97171.00
2023-05-23T02:15:55.441Z,97182.00
2023-05-23T02:18:26.137Z,97185.00
2023-05-23T02:20:54.372Z,97179.00
2023-05-23T02:23:22.687Z,97180.00
2023-05-23T02:25:50.920Z,97169.00
2023-05-23T02:28:19.108Z,97180.00
2023-05-23T02:30:47.559Z,97182.00
2023-05-23T02:33:17.810Z,97186.00
2023-05-23T02:35:46.088Z,97170.00
2023-05-23T02:38:14.278Z,97183.00
2023-05-23T02:40:43.421Z,97175.00
2023-05-23T02:43:11.598Z,97175.00
2023-05-23T02:45:40.093Z,97171.00
2023-05-23T02:48:08.623Z,97176.00
2023-05-23T02:50:38.436Z,97178.00
2023-05-23T02:53:06.789Z,97186.00
2023-05-23T02:55:35.225Z,97172.00
2023-05-23T02:58:05.873Z,97183.00
2023-05-23T03:00:34.358Z,97190.00
2023-05-23T03:03:03.284Z,97191.00
2023-05-23T03:05:31.700Z,97197.00
2023-05-23T03:08:01.301Z,97196.00
2023-05-23T03:10:29.516Z,97192.00
2023-05-23T03:12:57.730Z,97199.00
2023-05-23T03:15:25.996Z,97194.00
2023-05-23T03:17:54.286Z,97194.00
2023-05-23T03:20:22.766Z,97200.00
2023-05-23T03:22:50.965Z,97212.00
2023-05-23T03:25:20.586Z,97209.00
2023-05-23T03:27:49.051Z,97205.00
2023-05-23T03:30:17.551Z,97202.00
2023-05-23T03:32:46.559Z,97220.00
2023-05-23T03:35:14.867Z,97204.00
2023-05-23T03:37:43.077Z,97196.00
2023-05-23T03:40:11.870Z,97204.00
2023-05-23T03:42:42.096Z,97201.00
2023-05-23T03:45:12.239Z,97217.00
2023-05-23T03:47:40.727Z,97221.00
2023-05-23T03:50:10.353Z,97215.00
2023-05-23T03:52:38.852Z,97221.00
2023-05-23T03:55:11.582Z,97229.00
2023-05-23T03:57:41.924Z,97232.00
2023-05-23T04:00:12.625Z,97226.00
2023-05-23T04:02:46.217Z,97238.00
2023-05-23T04:05:18.090Z,97235.00
2023-05-23T04:07:47.636Z,97232.00
2023-05-23T04:10:16.369Z,97222.00
2023-05-23T04:12:47.934Z,97233.00
2023-05-23T04:15:21.490Z,97232.00
2023-05-23T04:17:54.734Z,97228.00
2023-05-23T04:20:23.217Z,97232.00
2023-05-23T04:22:51.492Z,97240.00
2023-05-23T04:25:20.331Z,97235.00
2023-05-23T04:28:05.346Z,97244.00
2023-05-23T04:30:34.596Z,97242.00
2023-05-23T04:33:03.000Z,97236.00
2023-05-23T04:35:34.193Z,97252.00
2023-05-23T04:38:04.006Z,97262.00
2023-05-23T04:40:33.008Z,97245.00
2023-05-23T04:43:26.563Z,97252.00
2023-05-23T04:45:58.767Z,97249.00
2023-05-23T04:48:37.349Z,97260.00
2023-05-23T04:51:07.851Z,97273.00
2023-05-23T04:53:41.236Z,97262.00
2023-05-23T04:56:11.167Z,97253.00
2023-05-23T04:58:42.225Z,97267.00
2023-05-23T05:01:12.802Z,97277.00
2023-05-23T05:03:41.735Z,97261.00
2023-05-23T05:06:10.560Z,97262.00
2023-05-23T05:08:40.843Z,97269.00
2023-05-23T05:11:11.332Z,97274.00
2023-05-23T05:13:42.402Z,97280.00
2023-05-23T05:16:10.830Z,97275.00
2023-05-23T05:18:40.690Z,97284.00
2023-05-23T05:21:09.179Z,97277.00
2023-05-23T05:23:38.787Z,97286.00
2023-05-23T05:26:09.416Z,97288.00
2023-05-23T05:28:38.247Z,97297.00
2023-05-23T05:31:07.995Z,97296.00
2023-05-23T05:33:37.778Z,97300.00
2023-05-23T05:36:11.264Z,97300.00
2023-05-23T05:38:39.933Z,97302.00
2023-05-23T05:41:09.456Z,97297.00
2023-05-23T05:43:41.730Z,97299.00
2023-05-23T05:46:12.634Z,97288.00
2023-05-23T05:48:41.796Z,97297.00
2023-05-23T05:51:13.419Z,97299.00
2023-05-23T05:53:42.782Z,97302.00
2023-05-23T05:56:11.178Z,97289.00
2023-05-23T05:58:40.826Z,97306.00
2023-05-23T06:01:12.569Z,97303.00
2023-05-23T06:03:41.486Z,97296.00
2023-05-23T06:06:10.170Z,97294.00
2023-05-23T06:08:40.869Z,97298.00
2023-05-23T06:11:13.276Z,97297.00
2023-05-23T06:13:41.631Z,97302.00
2023-05-23T06:16:11.941Z,97305.00
2023-05-23T06:18:40.626Z,97303.00
2023-05-23T06:21:11.547Z,97303.00
2023-05-23T06:23:40.003Z,97311.00
2023-05-23T06:26:10.784Z,97294.00
2023-05-23T06:28:40.121Z,97300.00
2023-05-23T06:31:10.159Z,97300.00
2023-05-23T06:33:40.067Z,97287.00
2023-05-23T06:36:08.910Z,97309.00
2023-05-23T06:38:37.325Z,97308.00
2023-05-23T06:41:07.155Z,97300.00
2023-05-23T06:43:36.881Z,97310.00
2023-05-23T06:46:15.298Z,97306.00
2023-05-23T06:48:45.018Z,97307.00
2023-05-23T06:51:13.731Z,97318.00
2023-05-23T06:53:43.136Z,97313.00
2023-05-23T06:56:11.737Z,97320.00
2023-05-23T06:58:50.970Z,97309.00
2023-05-23T07:01:19.320Z,97313.00
2023-05-23T07:03:51.481Z,97333.00
2023-05-23T07:06:19.826Z,97317.00
2023-05-23T07:08:48.098Z,97322.00
2023-05-23T07:11:17.310Z,97325.00
2023-05-23T07:13:51.011Z,97334.00
2023-05-23T07:16:24.601Z,97339.00
2023-05-23T07:19:03.266Z,97338.00
2023-05-23T07:21:32.762Z,97334.00
2023-05-23T07:24:01.421Z,97343.00
2023-05-23T07:26:30.933Z,97335.00
2023-05-23T07:29:00.035Z,97338.00
2023-05-23T07:31:28.863Z,97350.00
2023-05-23T07:34:01.177Z,97341.00
2023-05-23T07:36:37.881Z,97334.00
2023-05-23T07:39:08.494Z,97354.00
2023-05-23T07:41:36.755Z,97340.00
2023-05-23T07:44:04.921Z,97354.00
2023-05-23T07:46:33.367Z,97349.00
2023-05-23T07:49:03.029Z,97354.00
2023-05-23T07:51:31.658Z,97351.00
2023-05-23T07:54:01.323Z,97353.00
2023-05-23T07:56:29.654Z,97359.00
2023-05-23T07:58:57.983Z,97361.00
2023-05-23T08:01:26.245Z,97363.00
2023-05-23T08:03:54.589Z,97366.00
2023-05-23T08:06:31.828Z,97360.00
2023-05-23T08:09:03.171Z,97373.00
2023-05-23T08:11:33.261Z,97362.00
2023-05-23T08:14:02.694Z,97367.00
2023-05-23T08:16:51.352Z,97384.00
2023-05-23T08:19:23.651Z,97382.00
2023-05-23T08:21:54.115Z,97379.00
2023-05-23T08:24:22.622Z,97367.00
2023-05-23T08:26:51.708Z,97374.00
2023-05-23T08:29:20.350Z,97368.00
2023-05-23T08:31:49.247Z,97367.00
2023-05-23T08:34:17.623Z,97372.00
2023-05-23T08:36:46.098Z,97365.00
2023-05-23T08:39:20.419Z,97358.00
2023-05-23T08:41:58.183Z,97378.00
2023-05-23T08:44:26.659Z,97370.00
2023-05-23T08:47:05.796Z,97372.00
2023-05-23T08:49:56.553Z,97378.00
2023-05-23T08:52:31.090Z,97379.00
2023-05-23T08:55:02.888Z,97375.00
2023-05-23T08:57:32.376Z,97379.00
2023-05-23T09:00:14.897Z,97377.00
2023-05-23T09:02:46.126Z,97376.00
2023-05-23T09:05:37.739Z,97399.00
2023-05-23T09:08:06.411Z,97388.00
2023-05-23T09:10:36.146Z,97392.00
2023-05-23T09:13:07.579Z,97396.00
2023-05-23T09:15:36.631Z,97395.00
2023-05-23T09:18:05.716Z,97392.00
2023-05-23T09:20:35.643Z,97398.00
2023-05-23T09:23:14.005Z,97397.00
2023-05-23T09:25:50.143Z,97394.00
2023-05-23T09:28:19.539Z,97405.00
2023-05-23T09:30:47.795Z,97393.00
2023-05-23T09:33:17.049Z,97403.00
2023-05-23T09:35:46.854Z,97396.00
2023-05-23T09:38:15.177Z,97394.00
2023-05-23T09:40:48.631Z,97405.00
2023-05-23T09:43:19.140Z,97404.00
2023-05-23T09:45:51.671Z,97414.00
2023-05-23T09:48:20.032Z,97412.00
2023-05-23T09:50:51.469Z,97411.00
2023-05-23T09:53:22.587Z,97417.00
2023-05-23T09:55:54.450Z,97412.00
2023-05-23T09:58:26.276Z,97415.00
2023-05-23T10:01:00.721Z,97417.00
2023-05-23T10:03:35.752Z,97426.00
2023-05-23T10:06:14.448Z,97425.00
2023-05-23T10:08:53.328Z,97426.00
2023-05-23T10:12:21.211Z,97424.00
2023-05-23T10:14:58.586Z,97435.00
2023-05-23T10:17:38.298Z,97430.00
2023-05-23T10:20:12.533Z,97429.00
2023-05-23T10:22:43.287Z,97423.00
2023-05-23T10:25:11.913Z,97418.00
2023-05-23T10:27:41.984Z,97422.00
2023-05-23T10:30:13.747Z,97434.00
2023-05-23T10:32:44.095Z,97435.00
2023-05-23T10:35:23.600Z,97433.00
2023-05-23T10:38:03.456Z,97443.00
2023-05-23T10:40:47.995Z,97435.00
2023-05-23T10:43:27.622Z,97446.00
2023-05-23T10:45:57.417Z,97446.00
2023-05-23T10:48:36.894Z,97468.00
2023-05-23T10:51:07.122Z,97459.00
2023-05-23T10:53:38.637Z,97454.00
2023-05-23T10:56:08.341Z,97457.00
2023-05-23T10:58:39.685Z,97455.00
2023-05-23T11:01:14.431Z,97458.00
2023-05-23T11:03:55.342Z,97445.00
2023-05-23T11:06:34.011Z,97459.00
2023-05-23T11:09:08.207Z,97464.00
2023-05-23T11:12:05.252Z,97460.00
2023-05-23T11:14:54.604Z,97465.00
2023-05-23T11:17:35.272Z,97461.00
2023-05-23T11:20:10.210Z,97456.00
2023-05-23T11:22:39.880Z,97467.00
2023-05-23T11:25:10.125Z,97456.00
2023-05-23T11:27:40.576Z,97469.00
2023-05-23T11:30:13.520Z,97468.00
2023-05-23T11:32:50.891Z,97464.00
2023-05-23T11:35:19.785Z,97466.00
2023-05-23T11:37:48.506Z,97469.00
2023-05-23T11:40:30.339Z,97468.00
2023-05-23T11:42:59.284Z,97467.00
2023-05-23T11:45:31.753Z,97463.00
2023-05-23T11:48:07.899Z,97469.00
2023-05-23T11:50:45.279Z,97462.00
2023-05-23T11:53:14.152Z,97454.00
2023-05-23T11:55:54.399Z,97463.00
2023-05-23T11:58:24.142Z,97454.00
2023-05-23T12:00:55.092Z,97458.00
2023-05-23T12:03:25.159Z,97455.00
2023-05-23T12:05:53.425Z,97443.00
2023-05-23T12:08:21.813Z,97451.00
2023-05-23T12:10:55.358Z,97456.00
2023-05-23T12:13:26.766Z,97457.00
2023-05-23T12:15:56.759Z,97456.00
2023-05-23T12:18:31.003Z,97462.00
2023-05-23T12:21:03.218Z,97471.00
2023-05-23T12:23:34.493Z,97462.00
2023-05-23T12:26:08.000Z,97467.00
2023-05-23T12:28:38.592Z,97465.00
2023-05-23T12:31:15.235Z,97462.00
2023-05-23T12:33:48.339Z,97455.00
2023-05-23T12:36:24.262Z,97465.00
2023-05-23T12:38:52.523Z,97468.00
2023-05-23T12:41:22.465Z,97470.00
2023-05-23T12:43:52.610Z,97460.00
2023-05-23T12:46:22.142Z,97467.00
2023-05-23T12:48:52.052Z,97468.00
2023-05-23T12:51:21.158Z,97462.00
2023-05-23T12:53:49.871Z,97464.00
2023-05-23T12:56:18.310Z,97452.00
2023-05-23T12:58:46.505Z,97451.00
2023-05-23T13:01:15.335Z,97469.00
2023-05-23T13:03:43.653Z,97460.00
2023-05-23T13:06:13.385Z,97465.00
2023-05-23T13:08:41.775Z,97471.00
2023-05-23T13:11:10.546Z,97464.00
2023-05-23T13:13:38.833Z,97471.00
2023-05-23T13:16:08.135Z,97470.00
2023-05-23T13:18:36.538Z,97479.00
2023-05-23T13:21:05.360Z,97476.00
2023-05-23T13:23:36.190Z,97476.00
2023-05-23T13:26:04.798Z,97489.00
2023-05-23T13:28:33.351Z,97475.00
2023-05-23T13:31:03.408Z,97475.00
2023-05-23T13:33:31.805Z,97477.00
2023-05-23T13:36:00.213Z,97476.00
2023-05-23T13:38:30.791Z,97496.00
2023-05-23T13:41:00.433Z,97482.00
2023-05-23T13:43:28.780Z,97483.00
2023-05-23T13:45:57.119Z,97481.00
2023-05-23T13:48:25.425Z,97470.00
2023-05-23T13:50:53.736Z,97477.00
2023-05-23T13:53:22.050Z,97482.00
2023-05-23T13:55:53.325Z,97488.00
2023-05-23T13:58:22.997Z,97472.00
2023-05-23T14:00:51.296Z,97485.00
2023-05-23T14:03:20.129Z,97486.00
2023-05-23T14:05:48.725Z,97483.00
2023-05-23T14:08:17.057Z,97483.00
2023-05-23T14:10:45.452Z,97478.00
2023-05-23T14:13:13.761Z,97482.00
2023-05-23T14:15:43.645Z,97480.00
2023-05-23T14:18:12.081Z,97489.00
2023-05-23T14:20:40.663Z,97488.00
2023-05-23T14:23:09.128Z,97488.00
2023-05-23T14:25:37.477Z,97494.00
2023-05-23T14:28:05.757Z,97489.00
2023-05-23T14:30:34.070Z,97485.00
2023-05-23T14:33:03.704Z,97482.00
2023-05-23T14:35:32.079Z,97479.00
2023-05-23T14:38:00.359Z,97486.00
2023-05-23T14:40:28.651Z,97486.00
2023-05-23T14:42:56.909Z,97488.00
2023-05-23T14:45:25.321Z,97496.00
2023-05-23T14:47:53.691Z,97483.00
2023-05-23T14:50:23.340Z,97490.00
2023-05-23T14:52:51.606Z,97475.00
2023-05-23T14:55:20.026Z,97480.00
2023-05-23T14:57:48.244Z,97487.00
2023-05-23T15:00:17.499Z,97479.00
2023-05-23T15:02:45.996Z,97481.00
2023-05-23T15:05:15.308Z,97470.00
2023-05-23T15:07:45.520Z,97463.00
2023-05-23T15:10:13.924Z,97476.00
2023-05-23T15:12:42.541Z,97478.00
2023-05-23T15:15:12.002Z,97476.00
2023-05-23T15:17:40.390Z,97485.00
2023-05-23T15:20:10.335Z,97479.00
2023-05-23T15:22:40.056Z,97479.00
2023-05-23T15:25:11.776Z,97483.00
2023-05-23T15:27:40.053Z,97478.00
2023-05-23T15:30:10.147Z,97474.00
2023-05-23T15:32:38.490Z,97491.00
2023-05-23T15:35:08.025Z,97498.00
2023-05-23T15:37:36.346Z,97491.00
2023-05-23T15:40:05.159Z,97490.00
2023-05-23T15:42:34.878Z,97493.00
2023-05-23T15:45:03.337Z,97486.00
2023-05-23T15:47:31.771Z,97498.00
2023-05-23T15:50:00.223Z,97495.00
2023-05-23T15:52:28.765Z,97495.00
2023-05-23T15:54:58.022Z,97497.00
2023-05-23T15:57:26.432Z,97497.00
2023-05-23T15:59:56.094Z,97500.00
2023-05-23T16:02:24.493Z,97512.00
2023-05-23T16:04:52.945Z,97496.00
2023-05-23T16:07:21.421Z,97504.00
2023-05-23T16:09:49.876Z,97500.00
2023-05-23T16:12:18.180Z,97510.00
2023-05-23T16:14:47.021Z,97499.00
2023-05-23T16:17:16.693Z,97499.00
2023-05-23T16:19:44.940Z,97504.00
2023-05-23T16:22:13.365Z,97504.00
2023-05-23T16:24:41.939Z,97504.00
2023-05-23T16:27:10.260Z,97519.00
2023-05-23T16:29:38.484Z,97515.00
2023-05-23T16:32:08.071Z,97510.00
2023-05-23T16:34:37.725Z,97504.00
2023-05-23T16:37:06.958Z,97497.00
2023-05-23T16:39:35.256Z,97510.00
2023-05-23T16:42:03.840Z,97501.00
2023-05-23T16:44:32.172Z,97520.00
2023-05-23T16:47:00.971Z,97524.00
2023-05-23T16:49:29.219Z,97521.00
2023-05-23T16:51:58.948Z,97529.00
2023-05-23T16:54:27.376Z,97533.00
2023-05-23T16:57:01.734Z,97528.00
2023-05-23T16:59:31.788Z,97525.00
2023-05-23T17:02:00.395Z,97532.00
2023-05-23T17:04:28.735Z,97531.00
2023-05-23T17:06:58.777Z,97533.00
2023-05-23T17:09:26.976Z,97534.00
2023-05-23T17:11:55.262Z,97533.00
2023-05-23T17:14:23.685Z,97537.00
2023-05-23T17:16:52.107Z,97530.00
2023-05-23T17:19:20.744Z,97536.00
2023-05-23T17:21:51.223Z,97547.00
2023-05-23T17:24:21.158Z,97535.00
2023-05-23T17:26:49.908Z,97543.00
2023-05-23T17:29:18.858Z,97551.00
2023-05-23T17:31:47.128Z,97549.00
2023-05-23T17:34:16.016Z,97547.00
2023-05-23T17:36:44.368Z,97550.00
2023-05-23T17:39:12.593Z,97565.00
2023-05-23T17:41:42.463Z,97571.00
2023-05-23T17:44:10.814Z,97556.00
2023-05-23T17:46:39.438Z,97569.00
2023-05-23T17:49:08.222Z,97582.00
2023-05-23T17:51:36.988Z,97572.00
2023-05-23T17:54:05.385Z,97581.00
2023-05-23T17:56:33.687Z,97585.00
2023-05-23T17:59:05.945Z,97580.00
2023-05-23T18:01:34.529Z,97580.00
2023-05-23T18:04:03.527Z,97594.00
2023-05-23T18:06:31.964Z,97595.00
2023-05-23T18:09:00.295Z,97594.00
2023-05-23T18:11:28.577Z,97589.00
2023-05-23T18:13:56.900Z,97597.00
2023-05-23T18:16:26.625Z,97600.00
2023-05-23T18:18:54.970Z,97594.00
2023-05-23T18:21:23.266Z,97585.00
2023-05-23T18:23:52.228Z,97594.00
2023-05-23T18:26:21.305Z,97608.00
2023-05-23T18:28:49.713Z,97601.00
2023-05-23T18:31:18.149Z,97602.00
2023-05-23T18:33:48.022Z,97610.00
2023-05-23T18:36:16.277Z,97611.00
2023-05-23T18:38:45.641Z,97621.00
2023-05-23T18:41:15.020Z,97611.00
2023-05-23T18:43:43.647Z,97609.00
2023-05-23T18:46:11.978Z,97612.00
2023-05-23T18:48:40.860Z,97619.00
2023-05-23T18:51:12.176Z,97613.00
2023-05-23T18:53:42.488Z,97609.00
2023-05-23T18:56:11.150Z,97612.00
2023-05-23T18:58:39.666Z,97613.00
2023-05-23T19:01:08.202Z,97637.00
2023-05-23T19:03:37.430Z,97638.00
2023-05-23T19:06:07.063Z,97648.00
2023-05-23T19:08:36.795Z,97641.00
2023-05-23T19:11:05.961Z,97643.00
2023-05-23T19:13:34.404Z,97651.00
2023-05-23T19:16:03.032Z,97647.00
2023-05-23T19:18:31.724Z,97656.00
2023-05-23T19:21:00.130Z,97647.00
2023-05-23T19:23:28.932Z,97658.00
2023-05-23T19:25:58.806Z,97648.00
2023-05-23T19:28:27.169Z,97661.00
2023-05-23T19:30:55.789Z,97658.00
2023-05-23T19:33:24.340Z,97648.00
2023-05-23T19:35:53.035Z,97667.00
2023-05-23T19:38:21.539Z,97670.00
2023-05-23T19:40:49.868Z,97667.00
2023-05-23T19:43:19.527Z,97663.00
2023-05-23T19:45:47.990Z,97668.00
2023-05-23T19:48:16.516Z,97682.00
2023-05-23T19:50:45.110Z,97688.00
2023-05-23T19:53:13.564Z,97694.00
2023-05-23T19:55:42.734Z,97685.00
2023-05-23T19:58:11.889Z,97687.00
2023-05-23T20:00:42.966Z,97697.00
2023-05-23T20:03:11.611Z,97699.00
2023-05-23T20:05:40.333Z,97699.00
2023-05-23T20:08:08.926Z,97699.00
2023-05-23T20:10:37.391Z,97704.00
2023-05-23T20:13:05.962Z,97708.00
2023-05-23T20:15:40.153Z,97708.00
2023-05-23T20:18:10.554Z,97711.00
2023-05-23T20:20:39.000Z,97728.00
2023-05-23T20:23:07.831Z,97713.00
2023-05-23T20:25:36.125Z,97724.00
2023-05-23T20:28:04.563Z,97723.00
2023-05-23T20:30:32.859Z,97730.00
2023-05-23T20:33:01.401Z,97732.00
2023-05-23T20:35:31.176Z,97743.00
2023-05-23T20:37:59.458Z,97738.00
2023-05-23T20:40:39.042Z,97742.00
2023-05-23T20:43:07.571Z,97756.00
2023-05-23T20:45:35.915Z,97745.00
2023-05-23T20:48:04.422Z,97738.00
2023-05-23T20:50:35.465Z,97750.00
2023-05-23T20:53:03.859Z,97750.00
2023-05-23T20:55:35.385Z,97743.00
2023-05-23T20:58:03.744Z,97751.00
2023-05-23T21:00:32.054Z,97758.00
2023-05-23T21:03:00.561Z,97758.00
2023-05-23T21:05:28.852Z,97770.00
2023-05-23T21:07:58.557Z,97761.00
2023-05-23T21:10:26.890Z,97769.00
2023-05-23T21:12:55.114Z,97771.00
2023-05-23T21:15:23.727Z,97758.00
2023-05-23T21:17:52.035Z,97770.00
2023-05-23T21:20:21.603Z,97782.00
2023-05-23T21:22:49.928Z,97771.00
2023-05-23T21:25:19.584Z,97782.00
2023-05-23T21:27:47.813Z,97782.00
2023-05-23T21:30:16.275Z,97772.00
2023-05-23T21:32:44.826Z,97781.00
2023-05-23T21:35:13.186Z,97771.00
2023-05-23T21:37:41.773Z,97788.00
2023-05-23T21:40:11.589Z,97784.00
2023-05-23T21:42:41.263Z,97778.00
2023-05-23T21:45:10.915Z,97789.00
2023-05-23T21:47:39.275Z,97774.00
2023-05-23T21:50:09.309Z,97780.00
2023-05-23T21:52:37.511Z,97773.00
2023-05-23T21:55:06.435Z,97778.00
2023-05-23T21:57:34.661Z,97768.00
2023-05-23T22:00:12.083Z,97761.00
2023-05-23T22:02:44.340Z,97765.00
2023-05-23T22:05:13.062Z,97785.00
2023-05-23T22:07:44.538Z,97784.00
2023-05-23T22:10:13.110Z,97782.00
2023-05-23T22:12:41.445Z,97781.00
2023-05-23T22:15:12.375Z,97778.00
2023-05-23T22:17:43.530Z,97785.00
2023-05-23T22:20:14.459Z,97788.00
2023-05-23T22:22:43.033Z,97781.00
2023-05-23T22:25:11.820Z,97781.00
2023-05-23T22:27:40.179Z,97792.00
2023-05-23T22:30:11.251Z,97792.00
2023-05-23T22:32:39.517Z,97792.00
2023-05-23T22:35:08.983Z,97799.00
2023-05-23T22:37:37.188Z,97791.00
2023-05-23T22:40:06.572Z,97793.00
2023-05-23T22:42:34.891Z,97793.00
2023-05-23T22:45:03.263Z,97778.00
2023-05-23T22:47:33.428Z,97785.00
2023-05-23T22:50:02.177Z,97786.00
2023-05-23T22:52:31.173Z,97778.00
2023-05-23T22:54:59.476Z,97800.00
2023-05-23T22:57:27.875Z,97790.00
2023-05-23T22:59:56.157Z,97791.00
2023-05-23T23:02:24.497Z,97793.00
2023-05-23T23:04:54.103Z,97799.00
2023-05-23T23:07:22.349Z,97789.00
2023-05-23T23:09:50.510Z,97784.00
2023-05-23T23:12:18.825Z,97785.00
2023-05-23T23:14:47.471Z,97783.00
2023-05-23T23:17:16.310Z,97783.00
2023-05-23T23:19:44.523Z,97784.00
2023-05-23T23:22:14.156Z,97793.00
2023-05-23T23:24:42.600Z,97787.00
2023-05-23T23:27:10.852Z,97793.00
2023-05-23T23:29:38.968Z,97778.00
2023-05-23T23:32:07.741Z,97790.00
2023-05-23T23:34:35.904Z,97785.00
2023-05-23T23:37:04.322Z,97774.00
2023-05-23T23:39:33.960Z,97778.00
2023-05-23T23:42:02.140Z,97780.00
2023-05-23T23:44:30.776Z,97780.00
2023-05-23T23:46:58.991Z,97778.00
2023-05-23T23:49:27.302Z,97776.00
2023-05-23T23:51:55.592Z,97773.00
2023-05-23T23:54:24.063Z,97775.00
2023-05-23T23:56:53.672Z,97775.00
2023-05-23T23:59:22.006Z,97774.00
